Terminal Aerodrome Forecast
Issued by NWS Memphis, TN

Home | Current Version | Previous Version | Text Only | Print | Product List | Glossary On
Versions: 1 2 3 4 5 6 7 8 9 10 11 12 13 14 15 16 17 18
123
FTUS44 KMEG 220525
TAFMKL
TAF
KMKL 220525Z 2206/2306 08006KT P6SM SCT035 BKN150
     FM220800 11005KT 6SM -SHRA VCTS SCT015 OVC035CB
      TEMPO 2208/2210 VRB10G15KT 3SM TSRA BR SCT009 OVC015CB
     FM221100 14006KT P6SM VCSH SCT009 OVC015
     FM221500 VRB05KT 5SM SHRA BR BKN009 OVC015
     FM230000 33013G20KT 5SM -SHRA BR BKN006 OVC015=

USA.gov is the U.S. government's official web portal to all federal, state and local government web resources and services.